sensor_id;sensor_type;location;lat;lon;timestamp;pressure;altitude;pressure_sealevel;temperature;humidity
32109;BME280;18624;50.042;8.436;2024-03-02T00:00:30;99305.56;;;4.99;100.00
32109;BME280;18624;50.042;8.436;2024-03-02T00:02:56;99283.22;;;4.91;100.00
32109;BME280;18624;50.042;8.436;2024-03-02T00:05:23;99300.44;;;5.04;100.00
32109;BME280;18624;50.042;8.436;2024-03-02T00:07:54;99308.22;;;5.02;100.00
32109;BME280;18624;50.042;8.436;2024-03-02T00:10:36;99297.84;;;4.97;100.00
32109;BME280;18624;50.042;8.436;2024-03-02T00:13:03;99290.25;;;4.89;100.00
32109;BME280;18624;50.042;8.436;2024-03-02T00:15:40;99296.00;;;4.91;100.00
32109;BME280;18624;50.042;8.436;2024-03-02T00:18:11;99292.13;;;4.92;100.00
32109;BME280;18624;50.042;8.436;2024-03-02T00:20:39;99292.47;;;4.94;100.00
32109;BME280;18624;50.042;8.436;2024-03-02T00:23:07;99295.63;;;4.92;100.00
32109;BME280;18624;50.042;8.436;2024-03-02T00:25:39;99282.31;;;4.98;100.00
32109;BME280;18624;50.042;8.436;2024-03-02T00:28:17;99283.72;;;5.06;100.00
32109;BME280;18624;50.042;8.436;2024-03-02T00:33:36;99306.16;;;5.10;100.00
32109;BME280;18624;50.042;8.436;2024-03-02T00:36:03;99306.75;;;5.18;100.00
32109;BME280;18624;50.042;8.436;2024-03-02T00:38:31;99312.13;;;5.21;100.00
32109;BME280;18624;50.042;8.436;2024-03-02T00:41:05;99310.53;;;5.24;100.00
32109;BME280;18624;50.042;8.436;2024-03-02T00:43:43;99310.53;;;5.24;100.00
32109;BME280;18624;50.042;8.436;2024-03-02T00:46:18;99305.44;;;5.26;100.00
32109;BME280;18624;50.042;8.436;2024-03-02T00:48:53;99315.16;;;5.27;100.00
32109;BME280;18624;50.042;8.436;2024-03-02T00:51:22;99309.34;;;5.25;100.00
32109;BME280;18624;50.042;8.436;2024-03-02T00:53:50;99327.88;;;5.30;100.00
32109;BME280;18624;50.042;8.436;2024-03-02T00:56:17;99324.81;;;5.28;100.00
32109;BME280;18624;50.042;8.436;2024-03-02T00:58:43;99322.44;;;5.30;100.00
32109;BME280;18624;50.042;8.436;2024-03-02T01:01:09;99317.78;;;5.30;100.00
32109;BME280;18624;50.042;8.436;2024-03-02T01:03:36;99310.47;;;5.27;100.00
32109;BME280;18624;50.042;8.436;2024-03-02T01:06:04;99304.94;;;5.31;100.00
32109;BME280;18624;50.042;8.436;2024-03-02T01:08:31;99297.22;;;5.29;100.00
32109;BME280;18624;50.042;8.436;2024-03-02T01:10:57;99301.25;;;5.21;100.00
32109;BME280;18624;50.042;8.436;2024-03-02T01:13:24;99306.41;;;5.16;100.00
32109;BME280;18624;50.042;8.436;2024-03-02T01:15:51;99311.16;;;5.12;100.00
32109;BME280;18624;50.042;8.436;2024-03-02T01:18:17;99295.88;;;5.18;100.00
32109;BME280;18624;50.042;8.436;2024-03-02T01:20:44;99305.22;;;5.17;100.00
32109;BME280;18624;50.042;8.436;2024-03-02T01:23:11;99284.41;;;5.10;100.00
32109;BME280;18624;50.042;8.436;2024-03-02T01:25:37;99305.09;;;5.24;100.00
32109;BME280;18624;50.042;8.436;2024-03-02T01:28:04;99299.25;;;5.25;100.00
32109;BME280;18624;50.042;8.436;2024-03-02T01:30:31;99307.28;;;5.32;100.00
32109;BME280;18624;50.042;8.436;2024-03-02T01:32:57;99256.50;;;5.10;100.00
32109;BME280;18624;50.042;8.436;2024-03-02T01:35:25;99288.84;;;5.40;100.00
32109;BME280;18624;50.042;8.436;2024-03-02T01:37:53;99288.84;;;5.40;100.00
32109;BME280;18624;50.042;8.436;2024-03-02T01:40:19;99281.38;;;5.44;100.00
32109;BME280;18624;50.042;8.436;2024-03-02T01:42:46;99283.28;;;5.47;100.00
32109;BME280;18624;50.042;8.436;2024-03-02T01:45:13;99257.94;;;5.34;100.00
32109;BME280;18624;50.042;8.436;2024-03-02T01:47:40;99276.38;;;5.43;100.00
32109;BME280;18624;50.042;8.436;2024-03-02T01:50:07;99261.47;;;5.31;100.00
32109;BME280;18624;50.042;8.436;2024-03-02T01:52:33;99276.53;;;5.36;100.00
32109;BME280;18624;50.042;8.436;2024-03-02T01:55:00;99260.00;;;5.26;100.00
32109;BME280;18624;50.042;8.436;2024-03-02T01:57:26;99269.50;;;5.18;100.00
32109;BME280;18624;50.042;8.436;2024-03-02T01:59:53;99267.75;;;5.08;100.00
32109;BME280;18624;50.042;8.436;2024-03-02T02:02:20;99262.31;;;5.08;100.00
32109;BME280;18624;50.042;8.436;2024-03-02T02:04:46;99242.50;;;4.91;100.00
32109;BME280;18624;50.042;8.436;2024-03-02T02:07:13;99262.75;;;5.06;100.00
32109;BME280;18624;50.042;8.436;2024-03-02T02:09:43;99260.38;;;5.08;100.00
32109;BME280;18624;50.042;8.436;2024-03-02T02:12:10;99258.34;;;5.13;100.00
32109;BME280;18624;50.042;8.436;2024-03-02T02:14:37;99262.31;;;5.08;100.00
32109;BME280;18624;50.042;8.436;2024-03-02T02:17:03;99268.19;;;5.06;100.00
32109;BME280;18624;50.042;8.436;2024-03-02T02:19:30;99259.28;;;5.06;100.00
32109;BME280;18624;50.042;8.436;2024-03-02T02:21:56;99256.19;;;5.04;100.00
32109;BME280;18624;50.042;8.436;2024-03-02T02:24:23;99255.53;;;5.00;100.00
32109;BME280;18624;50.042;8.436;2024-03-02T02:26:49;99255.59;;;4.96;100.00
32109;BME280;18624;50.042;8.436;2024-03-02T02:29:16;99255.91;;;4.98;100.00
32109;BME280;18624;50.042;8.436;2024-03-02T02:31:42;99250.84;;;5.00;100.00
32109;BME280;18624;50.042;8.436;2024-03-02T02:34:09;99262.19;;;4.95;100.00
32109;BME280;18624;50.042;8.436;2024-03-02T02:36:37;99252.94;;;4.93;100.00
32109;BME280;18624;50.042;8.436;2024-03-02T02:39:05;99252.56;;;4.91;100.00
32109;BME280;18624;50.042;8.436;2024-03-02T02:41:33;99251.81;;;4.90;100.00
32109;BME280;18624;50.042;8.436;2024-03-02T02:43:59;99245.97;;;4.92;100.00
32109;BME280;18624;50.042;8.436;2024-03-02T02:46:26;99232.47;;;4.88;100.00
32109;BME280;18624;50.042;8.436;2024-03-02T02:48:52;99243.09;;;4.99;100.00
32109;BME280;18624;50.042;8.436;2024-03-02T02:51:20;99243.97;;;4.96;100.00
32109;BME280;18624;50.042;8.436;2024-03-02T02:53:46;99242.13;;;4.89;100.00
32109;BME280;18624;50.042;8.436;2024-03-02T02:56:13;99237.47;;;4.90;100.00
32109;BME280;18624;50.042;8.436;2024-03-02T02:58:40;99245.88;;;4.95;100.00
32109;BME280;18624;50.042;8.436;2024-03-02T03:01:08;99230.72;;;4.98;100.00
32109;BME280;18624;50.042;8.436;2024-03-02T03:03:34;99231.53;;;4.95;100.00
32109;BME280;18624;50.042;8.436;2024-03-02T03:06:01;99225.41;;;4.91;100.00
32109;BME280;18624;50.042;8.436;2024-03-02T03:08:28;99219.31;;;4.87;100.00
32109;BME280;18624;50.042;8.436;2024-03-02T03:10:55;99223.94;;;4.86;100.00
32109;BME280;18624;50.042;8.436;2024-03-02T03:13:21;99227.09;;;4.85;100.00
32109;BME280;18624;50.042;8.436;2024-03-02T03:15:49;99217.84;;;4.82;100.00
32109;BME280;18624;50.042;8.436;2024-03-02T03:18:15;99223.28;;;4.82;100.00
32109;BME280;18624;50.042;8.436;2024-03-02T03:20:42;99229.53;;;4.79;100.00
32109;BME280;18624;50.042;8.436;2024-03-02T03:23:08;99221.94;;;4.70;100.00
32109;BME280;18624;50.042;8.436;2024-03-02T03:25:35;99215.38;;;4.68;100.00
32109;BME280;18624;50.042;8.436;2024-03-02T03:28:01;99218.47;;;4.70;100.00
32109;BME280;18624;50.042;8.436;2024-03-02T03:30:28;99189.34;;;4.50;100.00
32109;BME280;18624;50.042;8.436;2024-03-02T03:32:54;99222.69;;;4.71;100.00
32109;BME280;18624;50.042;8.436;2024-03-02T03:35:21;99212.44;;;4.58;100.00
32109;BME280;18624;50.042;8.436;2024-03-02T03:37:47;99139.97;;;4.16;100.00
32109;BME280;18624;50.042;8.436;2024-03-02T03:40:14;99224.09;;;4.79;100.00
32109;BME280;18624;50.042;8.436;2024-03-02T03:42:40;99227.25;;;4.77;100.00
32109;BME280;18624;50.042;8.436;2024-03-02T03:45:07;99228.00;;;4.78;100.00
32109;BME280;18624;50.042;8.436;2024-03-02T03:47:34;99231.00;;;4.83;100.00
32109;BME280;18624;50.042;8.436;2024-03-02T03:50:01;99229.53;;;4.79;100.00
32109;BME280;18624;50.042;8.436;2024-03-02T03:52:27;99223.06;;;4.73;100.00
32109;BME280;18624;50.042;8.436;2024-03-02T03:54:53;99212.66;;;4.68;100.00
32109;BME280;18624;50.042;8.436;2024-03-02T03:57:20;99220.19;;;4.60;100.00
32109;BME280;18624;50.042;8.436;2024-03-02T03:59:47;99226.59;;;4.70;100.00
32109;BME280;18624;50.042;8.436;2024-03-02T04:02:13;99233.22;;;4.69;100.00
32109;BME280;18624;50.042;8.436;2024-03-02T04:04:40;99188.66;;;4.46;100.00
32109;BME280;18624;50.042;8.436;2024-03-02T04:07:06;99231.19;;;4.73;100.00
32109;BME280;18624;50.042;8.436;2024-03-02T04:09:33;99232.25;;;4.79;100.00
32109;BME280;18624;50.042;8.436;2024-03-02T04:11:59;99234.97;;;4.79;100.00
32109;BME280;18624;50.042;8.436;2024-03-02T04:14:25;99232.59;;;4.81;100.00
32109;BME280;18624;50.042;8.436;2024-03-02T04:16:52;99237.94;;;4.85;100.00
32109;BME280;18624;50.042;8.436;2024-03-02T04:19:18;99232.19;;;4.82;100.00
32109;BME280;18624;50.042;8.436;2024-03-02T04:21:45;99246.25;;;4.77;100.00
32109;BME280;18624;50.042;8.436;2024-03-02T04:24:11;99256.78;;;4.72;100.00
32109;BME280;18624;50.042;8.436;2024-03-02T04:26:38;99226.94;;;4.72;100.00
32109;BME280;18624;50.042;8.436;2024-03-02T04:29:04;99246.78;;;4.69;100.00
32109;BME280;18624;50.042;8.436;2024-03-02T04:31:30;99238.06;;;4.57;100.00
32109;BME280;18624;50.042;8.436;2024-03-02T04:33:57;99235.47;;;4.50;100.00
32109;BME280;18624;50.042;8.436;2024-03-02T04:36:23;99228.88;;;4.51;100.00
32109;BME280;18624;50.042;8.436;2024-03-02T04:38:50;99206.19;;;4.42;100.00
32109;BME280;18624;50.042;8.436;2024-03-02T04:41:16;99223.38;;;4.55;100.00
32109;BME280;18624;50.042;8.436;2024-03-02T04:43:43;99236.31;;;4.67;100.00
32109;BME280;18624;50.042;8.436;2024-03-02T04:46:09;99232.38;;;4.72;100.00
32109;BME280;18624;50.042;8.436;2024-03-02T04:48:37;99229.03;;;4.64;100.00
32109;BME280;18624;50.042;8.436;2024-03-02T04:51:03;99234.75;;;4.70;100.00
32109;BME280;18624;50.042;8.436;2024-03-02T04:53:30;99241.28;;;4.72;100.00
32109;BME280;18624;50.042;8.436;2024-03-02T04:55:56;99242.81;;;4.73;100.00
32109;BME280;18624;50.042;8.436;2024-03-02T04:58:41;99213.28;;;4.55;100.00
32109;BME280;18624;50.042;8.436;2024-03-02T05:01:08;99238.97;;;4.71;100.00
32109;BME280;18624;50.042;8.436;2024-03-02T05:03:34;99246.84;;;4.65;100.00
32109;BME280;18624;50.042;8.436;2024-03-02T05:06:01;99240.28;;;4.63;100.00
32109;BME280;18624;50.042;8.436;2024-03-02T05:08:27;99247.25;;;4.64;100.00
32109;BME280;18624;50.042;8.436;2024-03-02T05:10:54;99251.50;;;4.65;100.00
32109;BME280;18624;50.042;8.436;2024-03-02T05:13:20;99256.09;;;4.68;100.00
32109;BME280;18624;50.042;8.436;2024-03-02T05:15:47;99259.50;;;4.72;100.00
32109;BME280;18624;50.042;8.436;2024-03-02T05:18:14;99256.47;;;4.70;100.00
32109;BME280;18624;50.042;8.436;2024-03-02T05:20:41;99269.31;;;4.66;100.00
32109;BME280;18624;50.042;8.436;2024-03-02T05:23:07;99229.13;;;4.37;100.00
32109;BME280;18624;50.042;8.436;2024-03-02T05:25:34;99266.25;;;4.64;100.00
32109;BME280;18624;50.042;8.436;2024-03-02T05:28:01;99273.63;;;4.63;100.00
32109;BME280;18624;50.042;8.436;2024-03-02T05:30:28;99276.28;;;4.67;100.00
32109;BME280;18624;50.042;8.436;2024-03-02T05:32:54;99274.75;;;4.66;100.00
32109;BME280;18624;50.042;8.436;2024-03-02T05:35:21;99281.22;;;4.72;100.00
32109;BME280;18624;50.042;8.436;2024-03-02T05:37:47;99235.53;;;4.47;100.00
32109;BME280;18624;50.042;8.436;2024-03-02T05:40:14;99257.41;;;4.60;100.00
32109;BME280;18624;50.042;8.436;2024-03-02T05:42:40;99286.06;;;4.84;100.00
32109;BME280;18624;50.042;8.436;2024-03-02T05:45:08;99301.53;;;4.87;100.00
32109;BME280;18624;50.042;8.436;2024-03-02T05:47:34;99296.44;;;4.89;100.00
32109;BME280;18624;50.042;8.436;2024-03-02T05:50:01;99302.63;;;4.90;100.00
32109;BME280;18624;50.042;8.436;2024-03-02T05:52:27;99299.50;;;4.91;100.00
32109;BME280;18624;50.042;8.436;2024-03-02T05:54:54;99299.09;;;4.93;100.00
32109;BME280;18624;50.042;8.436;2024-03-02T05:57:20;99299.16;;;4.89;100.00
32109;BME280;18624;50.042;8.436;2024-03-02T06:00:06;99303.47;;;4.87;100.00
32109;BME280;18624;50.042;8.436;2024-03-02T06:02:40;99303.06;;;4.88;100.00
32109;BME280;18624;50.042;8.436;2024-03-02T06:05:07;99299.91;;;4.90;100.00
32109;BME280;18624;50.042;8.436;2024-03-02T06:07:33;99303.00;;;4.92;100.00
32109;BME280;18624;50.042;8.436;2024-03-02T06:10:00;99303.69;;;4.96;100.00
32109;BME280;18624;50.042;8.436;2024-03-02T06:12:26;99303.69;;;4.96;100.00
32109;BME280;18624;50.042;8.436;2024-03-02T06:14:53;99309.84;;;5.00;100.00
32109;BME280;18624;50.042;8.436;2024-03-02T06:17:19;99313.31;;;5.00;100.00
32109;BME280;18624;50.042;8.436;2024-03-02T06:19:46;99307.88;;;5.00;100.00
32109;BME280;18624;50.042;8.436;2024-03-02T06:22:12;99305.88;;;5.04;100.00
32109;BME280;18624;50.042;8.436;2024-03-02T06:24:39;99299.31;;;5.02;100.00
32109;BME280;18624;50.042;8.436;2024-03-02T06:27:05;99305.38;;;5.10;100.00
32109;BME280;18624;50.042;8.436;2024-03-02T06:29:35;99318.09;;;5.13;100.00
32109;BME280;18624;50.042;8.436;2024-03-02T06:32:01;99305.28;;;5.13;100.00
32109;BME280;18624;50.042;8.436;2024-03-02T06:34:27;99308.81;;;5.14;100.00
32109;BME280;18624;50.042;8.436;2024-03-02T06:36:54;99315.47;;;5.09;100.00
32109;BME280;18624;50.042;8.436;2024-03-02T06:39:21;99314.34;;;5.06;100.00
32109;BME280;18624;50.042;8.436;2024-03-02T06:41:47;99316.31;;;5.06;100.00
32109;BME280;18624;50.042;8.436;2024-03-02T06:44:14;99313.59;;;5.06;100.00
32109;BME280;18624;50.042;8.436;2024-03-02T06:46:40;99313.53;;;5.10;100.00
32109;BME280;18624;50.042;8.436;2024-03-02T06:49:07;99306.69;;;5.01;100.00
32109;BME280;18624;50.042;8.436;2024-03-02T06:51:34;99305.88;;;5.04;100.00
32109;BME280;18624;50.042;8.436;2024-03-02T06:54:01;99308.97;;;5.03;100.00
32109;BME280;18624;50.042;8.436;2024-03-02T06:56:27;99310.66;;;4.97;100.00
32109;BME280;18624;50.042;8.436;2024-03-02T06:58:54;99306.09;;;4.90;100.00
32109;BME280;18624;50.042;8.436;2024-03-02T07:01:20;99314.97;;;4.94;100.00
32109;BME280;18624;50.042;8.436;2024-03-02T07:03:51;99316.16;;;4.93;100.00
32109;BME280;18624;50.042;8.436;2024-03-02T07:06:17;99321.56;;;4.93;100.00
32109;BME280;18624;50.042;8.436;2024-03-02T07:08:44;99321.56;;;4.93;100.00
32109;BME280;18624;50.042;8.436;2024-03-02T07:11:10;99327.81;;;4.90;100.00
32109;BME280;18624;50.042;8.436;2024-03-02T07:13:36;99332.09;;;4.91;100.00
32109;BME280;18624;50.042;8.436;2024-03-02T07:16:03;99339.00;;;4.96;100.00
32109;BME280;18624;50.042;8.436;2024-03-02T07:18:30;99324.00;;;4.88;100.00
32109;BME280;18624;50.042;8.436;2024-03-02T07:20:57;99340.75;;;5.06;100.00
32109;BME280;18624;50.042;8.436;2024-03-02T07:23:27;99343.19;;;5.00;100.00
32109;BME280;18624;50.042;8.436;2024-03-02T07:25:54;99357.09;;;5.02;100.00
32109;BME280;18624;50.042;8.436;2024-03-02T07:28:26;99357.00;;;5.10;100.00
32109;BME280;18624;50.042;8.436;2024-03-02T07:30:59;99351.78;;;5.19;100.00
32109;BME280;18624;50.042;8.436;2024-03-02T07:33:27;99351.06;;;5.15;100.00
32109;BME280;18624;50.042;8.436;2024-03-02T07:35:54;99344.72;;;5.21;100.00
32109;BME280;18624;50.042;8.436;2024-03-02T07:38:22;99343.56;;;5.22;100.00
32109;BME280;18624;50.042;8.436;2024-03-02T07:40:49;99345.09;;;5.23;100.00
32109;BME280;18624;50.042;8.436;2024-03-02T07:43:19;99355.19;;;5.43;100.00
32109;BME280;18624;50.042;8.436;2024-03-02T07:45:46;99355.91;;;5.47;100.00
32109;BME280;18624;50.042;8.436;2024-03-02T07:48:13;99360.56;;;5.46;100.00
32109;BME280;18624;50.042;8.436;2024-03-02T07:50:39;99366.28;;;5.52;100.00
32109;BME280;18624;50.042;8.436;2024-03-02T07:53:06;99357.63;;;5.57;100.00
32109;BME280;18624;50.042;8.436;2024-03-02T07:55:34;99366.53;;;5.57;100.00
32109;BME280;18624;50.042;8.436;2024-03-02T07:58:01;99365.72;;;5.61;100.00
32109;BME280;18624;50.042;8.436;2024-03-02T08:00:28;99363.00;;;5.61;100.00
32109;BME280;18624;50.042;8.436;2024-03-02T08:02:55;99349.69;;;5.46;100.00
32109;BME280;18624;50.042;8.436;2024-03-02T08:05:22;99366.47;;;5.61;100.00
32109;BME280;18624;50.042;8.436;2024-03-02T08:07:48;99370.66;;;5.66;100.00
32109;BME280;18624;50.042;8.436;2024-03-02T08:10:18;99338.13;;;5.42;100.00
32109;BME280;18624;50.042;8.436;2024-03-02T08:12:45;99369.06;;;5.68;100.00
32109;BME280;18624;50.042;8.436;2024-03-02T08:15:12;99376.53;;;5.64;100.00
32109;BME280;18624;50.042;8.436;2024-03-02T08:17:39;99371.03;;;5.68;100.00
32109;BME280;18624;50.042;8.436;2024-03-02T08:20:14;99375.97;;;5.73;100.00
32109;BME280;18624;50.042;8.436;2024-03-02T08:22:41;99380.22;;;5.74;100.00
32109;BME280;18624;50.042;8.436;2024-03-02T08:25:08;99337.38;;;5.42;100.00
32109;BME280;18624;50.042;8.436;2024-03-02T08:27:34;99350.59;;;5.59;100.00
32109;BME280;18624;50.042;8.436;2024-03-02T08:30:02;99354.41;;;5.62;100.00
32109;BME280;18624;50.042;8.436;2024-03-02T08:32:32;99373.84;;;5.80;100.00
32109;BME280;18624;50.042;8.436;2024-03-02T08:34:58;99365.69;;;5.80;100.00
32109;BME280;18624;50.042;8.436;2024-03-02T08:37:25;99371.94;;;5.81;100.00
32109;BME280;18624;50.042;8.436;2024-03-02T08:39:51;99367.94;;;5.86;100.00
32109;BME280;18624;50.042;8.436;2024-03-02T08:42:18;99362.63;;;5.98;100.00
32109;BME280;18624;50.042;8.436;2024-03-02T08:44:45;99373.19;;;5.96;100.00
32109;BME280;18624;50.042;8.436;2024-03-02T08:47:11;99377.41;;;5.97;100.00
32109;BME280;18624;50.042;8.436;2024-03-02T08:49:37;99371.84;;;6.04;100.00
32109;BME280;18624;50.042;8.436;2024-03-02T08:52:04;99375.25;;;6.08;100.00
32109;BME280;18624;50.042;8.436;2024-03-02T08:54:31;99368.94;;;6.12;100.00
32109;BME280;18624;50.042;8.436;2024-03-02T08:56:58;99370.16;;;6.11;100.00
32109;BME280;18624;50.042;8.436;2024-03-02T08:59:25;99346.75;;;5.97;100.00
32109;BME280;18624;50.042;8.436;2024-03-02T09:01:54;99374.75;;;6.14;100.00
32109;BME280;18624;50.042;8.436;2024-03-02T09:04:20;99385.81;;;6.23;100.00
32109;BME280;18624;50.042;8.436;2024-03-02T09:06:51;99366.84;;;6.19;100.00
32109;BME280;18624;50.042;8.436;2024-03-02T09:09:17;99378.34;;;6.27;100.00
32109;BME280;18624;50.042;8.436;2024-03-02T09:11:46;99376.72;;;6.29;100.00
32109;BME280;18624;50.042;8.436;2024-03-02T09:14:12;99371.28;;;6.29;100.00
32109;BME280;18624;50.042;8.436;2024-03-02T09:16:41;99290.06;;;5.75;100.00
32109;BME280;18624;50.042;8.436;2024-03-02T09:19:07;99385.41;;;6.41;100.00
32109;BME280;18624;50.042;8.436;2024-03-02T09:21:34;99360.66;;;6.35;100.00
32109;BME280;18624;50.042;8.436;2024-03-02T09:24:01;99384.91;;;6.46;100.00
32109;BME280;18624;50.042;8.436;2024-03-02T09:26:29;99370.19;;;6.43;100.00
32109;BME280;18624;50.042;8.436;2024-03-02T09:28:55;99365.41;;;6.47;100.00
32109;BME280;18624;50.042;8.436;2024-03-02T09:31:22;99368.00;;;6.54;100.00
32109;BME280;18624;50.042;8.436;2024-03-02T09:33:48;99371.41;;;6.58;100.00
32109;BME280;18624;50.042;8.436;2024-03-02T09:36:22;99371.13;;;6.69;100.00
32109;BME280;18624;50.042;8.436;2024-03-02T09:38:49;99370.38;;;6.69;100.00
32109;BME280;18624;50.042;8.436;2024-03-02T09:41:16;99374.53;;;6.73;100.00
32109;BME280;18624;50.042;8.436;2024-03-02T09:43:42;99371.66;;;6.80;100.00
32109;BME280;18624;50.042;8.436;2024-03-02T09:46:09;99366.88;;;6.84;100.00
32109;BME280;18624;50.042;8.436;2024-03-02T09:48:37;99364.41;;;6.90;100.00
32109;BME280;18624;50.042;8.436;2024-03-02T09:51:04;99347.63;;;6.92;100.00
32109;BME280;18624;50.042;8.436;2024-03-02T09:53:32;99356.19;;;7.06;100.00
32109;BME280;18624;50.042;8.436;2024-03-02T09:56:00;99355.41;;;7.06;100.00
32109;BME280;18624;50.042;8.436;2024-03-02T09:58:27;99325.91;;;6.88;100.00
32109;BME280;18624;50.042;8.436;2024-03-02T10:00:54;99356.84;;;7.10;100.00
32109;BME280;18624;50.042;8.436;2024-03-02T10:03:22;99365.72;;;7.15;100.00
32109;BME280;18624;50.042;8.436;2024-03-02T10:05:53;99360.59;;;7.17;100.00
32109;BME280;18624;50.042;8.436;2024-03-02T10:08:19;99355.91;;;7.17;100.00
32109;BME280;18624;50.042;8.436;2024-03-02T10:10:46;99351.13;;;7.21;100.00
32109;BME280;18624;50.042;8.436;2024-03-02T10:13:13;99347.22;;;7.22;100.00
32109;BME280;18624;50.042;8.436;2024-03-02T10:15:40;99353.56;;;7.32;100.00
32109;BME280;18624;50.042;8.436;2024-03-02T10:18:11;99348.69;;;7.40;100.00
32109;BME280;18624;50.042;8.436;2024-03-02T10:20:39;99346.97;;;7.46;100.00
32109;BME280;18624;50.042;8.436;2024-03-02T10:25:36;99348.38;;;7.50;100.00
32109;BME280;18624;50.042;8.436;2024-03-02T10:28:16;99333.22;;;7.49;100.00
32109;BME280;18624;50.042;8.436;2024-03-02T10:30:47;99332.78;;;7.51;100.00
32109;BME280;18624;50.042;8.436;2024-03-02T10:33:17;99349.06;;;7.54;100.00
32109;BME280;18624;50.042;8.436;2024-03-02T10:35:43;99338.38;;;7.60;100.00
32109;BME280;18624;50.042;8.436;2024-03-02T10:38:11;99343.63;;;7.67;100.00
32109;BME280;18624;50.042;8.436;2024-03-02T10:40:37;99341.66;;;7.68;100.00
32109;BME280;18624;50.042;8.436;2024-03-02T10:43:04;99313.72;;;7.51;100.00
32109;BME280;18624;50.042;8.436;2024-03-02T10:45:32;99346.94;;;7.75;100.00
32109;BME280;18624;50.042;8.436;2024-03-02T10:48:00;99300.63;;;7.58;100.00
32109;BME280;18624;50.042;8.436;2024-03-02T10:50:28;99335.03;;;7.81;100.00
32109;BME280;18624;50.042;8.436;2024-03-02T10:52:55;99316.38;;;7.80;100.00
32109;BME280;18624;50.042;8.436;2024-03-02T10:55:21;99323.38;;;7.94;100.00
32109;BME280;18624;50.042;8.436;2024-03-02T10:57:52;99321.31;;;7.98;100.00
32109;BME280;18624;50.042;8.436;2024-03-02T11:00:25;99315.31;;;8.03;100.00
32109;BME280;18624;50.042;8.436;2024-03-02T11:02:57;99306.88;;;8.10;100.00
32109;BME280;18624;50.042;8.436;2024-03-02T11:05:28;99311.81;;;8.15;100.00
32109;BME280;18624;50.042;8.436;2024-03-02T11:08:01;99308.84;;;8.22;100.00
32109;BME280;18624;50.042;8.436;2024-03-02T11:10:35;99300.22;;;8.24;100.00
32109;BME280;18624;50.042;8.436;2024-03-02T11:13:05;99298.47;;;8.30;100.00
32109;BME280;18624;50.042;8.436;2024-03-02T11:15:35;99296.81;;;8.32;100.00
32109;BME280;18624;50.042;8.436;2024-03-02T11:18:04;99284.38;;;8.31;100.00
32109;BME280;18624;50.042;8.436;2024-03-02T11:20:38;99298.03;;;8.44;100.00
32109;BME280;18624;50.042;8.436;2024-03-02T11:23:06;99297.41;;;8.40;100.00
32109;BME280;18624;50.042;8.436;2024-03-02T11:25:33;99292.59;;;8.44;100.00
32109;BME280;18624;50.042;8.436;2024-03-02T11:28:02;99299.75;;;8.51;100.00
32109;BME280;18624;50.042;8.436;2024-03-02T11:33:03;99288.63;;;8.58;100.00
32109;BME280;18624;50.042;8.436;2024-03-02T11:35:35;99292.75;;;8.62;100.00
32109;BME280;18624;50.042;8.436;2024-03-02T11:38:02;99283.69;;;8.66;100.00
32109;BME280;18624;50.042;8.436;2024-03-02T11:40:30;99277.00;;;8.67;100.00
32109;BME280;18624;50.042;8.436;2024-03-02T11:42:56;99276.44;;;8.72;100.00
32109;BME280;18624;50.042;8.436;2024-03-02T11:45:28;99270.13;;;8.75;100.00
32109;BME280;18624;50.042;8.436;2024-03-02T11:47:57;99278.03;;;8.82;100.00
32109;BME280;18624;50.042;8.436;2024-03-02T11:53:02;99260.84;;;8.94;100.00
32109;BME280;18624;50.042;8.436;2024-03-02T11:55:30;99268.59;;;8.96;100.00
32109;BME280;18624;50.042;8.436;2024-03-02T11:57:57;99267.91;;;9.04;100.00
32109;BME280;18624;50.042;8.436;2024-03-02T12:00:25;99259.13;;;9.09;100.00
32109;BME280;18624;50.042;8.436;2024-03-02T12:03:04;99258.13;;;9.16;100.00
32109;BME280;18624;50.042;8.436;2024-03-02T12:05:31;99219.28;;;8.99;100.00
32109;BME280;18624;50.042;8.436;2024-03-02T12:07:59;99163.22;;;8.73;100.00
32109;BME280;18624;50.042;8.436;2024-03-02T12:10:26;99238.63;;;9.36;100.00
32109;BME280;18624;50.042;8.436;2024-03-02T12:13:04;99232.16;;;9.43;100.00
32109;BME280;18624;50.042;8.436;2024-03-02T12:15:34;99237.91;;;9.45;100.00
32109;BME280;18624;50.042;8.436;2024-03-02T12:18:04;99236.28;;;9.47;100.00
32109;BME280;18624;50.042;8.436;2024-03-02T12:20:32;99222.19;;;9.58;100.00
32109;BME280;18624;50.042;8.436;2024-03-02T12:23:01;99227.53;;;9.61;100.00
32109;BME280;18624;50.042;8.436;2024-03-02T12:25:30;99213.59;;;9.69;100.00
32109;BME280;18624;50.042;8.436;2024-03-02T12:27:58;99218.00;;;9.75;100.00
32109;BME280;18624;50.042;8.436;2024-03-02T12:30:27;99191.81;;;9.65;100.00
32109;BME280;18624;50.042;8.436;2024-03-02T12:32:57;99210.91;;;9.87;100.00
32109;BME280;18624;50.042;8.436;2024-03-02T12:35:24;99190.56;;;9.97;100.00
32109;BME280;18624;50.042;8.436;2024-03-02T12:37:52;99196.81;;;10.16;100.00
32109;BME280;18624;50.042;8.436;2024-03-02T12:40:20;99169.13;;;9.96;100.00
32109;BME280;18624;50.042;8.436;2024-03-02T12:42:49;99182.06;;;10.13;100.00
32109;BME280;18624;50.042;8.436;2024-03-02T12:45:16;99145.06;;;9.90;100.00
32109;BME280;18624;50.042;8.436;2024-03-02T12:47:50;99176.28;;;10.11;100.00
32109;BME280;18624;50.042;8.436;2024-03-02T12:50:18;99196.53;;;10.23;100.00
32109;BME280;18624;50.042;8.436;2024-03-02T12:52:51;99175.56;;;10.29;100.00
32109;BME280;18624;50.042;8.436;2024-03-02T12:55:19;99186.69;;;10.44;99.73
32109;BME280;18624;50.042;8.436;2024-03-02T12:57:46;99192.16;;;10.53;98.07
32109;BME280;18624;50.042;8.436;2024-03-02T13:00:18;99183.03;;;10.56;95.04
32109;BME280;18624;50.042;8.436;2024-03-02T13:02:45;99186.84;;;10.59;96.70
32109;BME280;18624;50.042;8.436;2024-03-02T13:05:12;99184.09;;;10.59;98.16
32109;BME280;18624;50.042;8.436;2024-03-02T13:07:39;99171.75;;;10.73;96.68
32109;BME280;18624;50.042;8.436;2024-03-02T13:10:07;99168.41;;;10.69;95.92
32109;BME280;18624;50.042;8.436;2024-03-02T13:12:36;99167.19;;;10.79;98.60